createdAt,value
2022-11-22T00:00:29.606Z,93.14
2022-11-22T00:02:56.315Z,92.98
2022-11-22T00:05:23.146Z,92.67
2022-11-22T00:07:50.358Z,92.57
2022-11-22T00:10:17.153Z,92.67
2022-11-22T00:12:44.354Z,92.99
2022-11-22T00:15:12.471Z,93.10
2022-11-22T00:17:39.826Z,92.82
2022-11-22T00:20:12.028Z,93.22
2022-11-22T00:22:44.503Z,93.58
2022-11-22T00:25:12.539Z,93.65
2022-11-22T00:27:41.631Z,93.87
2022-11-22T00:30:10.861Z,94.03
2022-11-22T00:32:37.559Z,93.81
2022-11-22T00:35:04.880Z,94.14
2022-11-22T00:37:31.814Z,93.84
2022-11-22T00:39:58.589Z,93.75
2022-11-22T00:42:25.272Z,93.97
2022-11-22T00:44:51.841Z,94.17
2022-11-22T00:47:18.372Z,93.94
2022-11-22T00:49:45.063Z,94.00
2022-11-22T00:52:11.942Z,93.93
2022-11-22T00:54:38.456Z,94.13
2022-11-22T00:57:07.489Z,94.31
2022-11-22T00:59:34.056Z,94.24
2022-11-22T01:02:00.678Z,94.73
2022-11-22T01:04:27.285Z,94.41
2022-11-22T01:06:56.276Z,94.85
2022-11-22T01:09:24.108Z,94.64
2022-11-22T01:11:53.561Z,94.92
2022-11-22T01:14:20.725Z,95.14
2022-11-22T01:16:47.976Z,95.07
2022-11-22T01:19:14.826Z,95.10
2022-11-22T01:21:43.595Z,95.15
2022-11-22T01:24:10.284Z,95.20
2022-11-22T01:26:39.110Z,95.63
2022-11-22T01:29:10.139Z,95.41
2022-11-22T01:31:36.713Z,95.49
2022-11-22T01:34:05.317Z,95.44
2022-11-22T01:36:34.338Z,95.32
2022-11-22T01:39:00.855Z,95.25
2022-11-22T01:41:27.591Z,95.41
2022-11-22T01:43:54.188Z,94.88
2022-11-22T01:46:38.479Z,95.06
2022-11-22T01:49:16.619Z,95.04
2022-11-22T01:51:47.908Z,95.19
2022-11-22T01:54:22.237Z,95.17
2022-11-22T01:56:59.479Z,94.95
2022-11-22T01:59:34.847Z,95.04
2022-11-22T02:02:02.480Z,95.32
2022-11-22T02:04:31.441Z,95.20
2022-11-22T02:07:14.299Z,95.46
2022-11-22T02:09:47.139Z,95.69
2022-11-22T02:12:18.453Z,95.53
2022-11-22T02:14:45.806Z,95.87
2022-11-22T02:17:14.576Z,95.99
2022-11-22T02:19:46.776Z,95.54
2022-11-22T02:22:22.249Z,95.78
2022-11-22T02:24:57.776Z,95.80
2022-11-22T02:27:24.731Z,95.63
2022-11-22T02:29:51.419Z,95.53
2022-11-22T02:32:18.079Z,95.84
2022-11-22T02:34:49.980Z,96.16
2022-11-22T02:37:24.187Z,95.76
2022-11-22T02:39:58.824Z,95.94
2022-11-22T02:42:27.988Z,95.87
2022-11-22T02:44:54.617Z,95.96
2022-11-22T02:47:21.227Z,95.75
2022-11-22T02:49:48.007Z,96.06
2022-11-22T02:52:18.800Z,96.19
2022-11-22T02:54:46.366Z,95.66
2022-11-22T02:57:13.412Z,95.99
2022-11-22T02:59:42.171Z,96.19
2022-11-22T03:02:08.726Z,95.99
2022-11-22T03:04:38.250Z,95.92
2022-11-22T03:07:09.731Z,96.13
2022-11-22T03:09:36.387Z,96.29
2022-11-22T03:12:03.234Z,96.32
2022-11-22T03:14:29.835Z,96.57
2022-11-22T03:16:56.483Z,96.42
2022-11-22T03:19:23.095Z,96.47
2022-11-22T03:21:50.133Z,96.40
2022-11-22T03:24:17.246Z,96.54
2022-11-22T03:26:48.071Z,96.73
2022-11-22T03:29:14.924Z,96.63
2022-11-22T03:31:41.497Z,96.59
2022-11-22T03:34:10.394Z,96.55
2022-11-22T03:36:36.937Z,96.79
2022-11-22T03:39:03.920Z,96.47
2022-11-22T03:41:30.494Z,96.67
2022-11-22T03:43:59.253Z,96.69
2022-11-22T03:46:25.885Z,96.62
2022-11-22T03:48:52.419Z,96.89
2022-11-22T03:51:19.092Z,96.60
2022-11-22T03:53:45.654Z,96.69
2022-11-22T03:56:12.334Z,97.04
2022-11-22T03:58:38.917Z,97.04
2022-11-22T04:01:05.556Z,96.78
2022-11-22T04:03:32.163Z,96.90
2022-11-22T04:06:01.003Z,97.27
2022-11-22T04:08:27.959Z,97.56
2022-11-22T04:10:57.284Z,97.23
2022-11-22T04:13:43.827Z,97.21
2022-11-22T04:16:10.411Z,97.32
2022-11-22T04:18:36.975Z,97.27
2022-11-22T04:21:22.186Z,97.31
2022-11-22T04:24:08.673Z,97.76
2022-11-22T04:26:35.400Z,97.51
2022-11-22T04:29:11.829Z,97.84
2022-11-22T04:31:59.484Z,97.56
2022-11-22T04:34:26.129Z,97.38
2022-11-22T04:36:52.864Z,97.49
2022-11-22T04:39:19.563Z,97.87
2022-11-22T04:41:46.174Z,97.88
2022-11-22T04:44:31.719Z,97.49
2022-11-22T04:46:58.247Z,97.52
2022-11-22T04:49:24.932Z,97.45
2022-11-22T04:52:09.858Z,97.46
2022-11-22T04:54:36.526Z,98.03
2022-11-22T04:57:05.312Z,97.51
2022-11-22T04:59:32.088Z,97.67
2022-11-22T05:01:58.929Z,97.61
2022-11-22T05:04:25.486Z,97.65
2022-11-22T05:06:52.223Z,98.06
2022-11-22T05:09:21.266Z,97.83
2022-11-22T05:11:47.810Z,97.44
2022-11-22T05:14:16.599Z,97.68
2022-11-22T05:16:45.560Z,97.72
2022-11-22T05:19:12.255Z,97.58
2022-11-22T05:21:38.949Z,97.75
2022-11-22T05:24:05.918Z,98.16
2022-11-22T05:26:35.202Z,98.25
2022-11-22T05:29:10.621Z,98.43
2022-11-22T05:31:39.701Z,98.19
2022-11-22T05:34:08.753Z,98.24
2022-11-22T05:36:35.724Z,98.04
2022-11-22T05:39:02.895Z,97.78
2022-11-22T05:41:29.463Z,97.90
2022-11-22T05:43:58.806Z,98.03
2022-11-22T05:46:30.344Z,97.57
2022-11-22T05:48:58.455Z,98.08
2022-11-22T05:51:33.925Z,97.57
2022-11-22T05:54:03.719Z,97.80
2022-11-22T05:56:30.362Z,98.39
2022-11-22T05:58:57.081Z,97.67
2022-11-22T06:01:24.991Z,97.81
2022-11-22T06:03:54.405Z,98.19
2022-11-22T06:06:21.033Z,98.14
2022-11-22T06:08:49.174Z,97.99
2022-11-22T06:11:24.113Z,97.82
2022-11-22T06:13:56.472Z,97.81
2022-11-22T06:16:23.438Z,98.34
2022-11-22T06:18:50.583Z,97.80
2022-11-22T06:21:25.227Z,98.21
2022-11-22T06:23:55.401Z,97.99
2022-11-22T06:26:26.022Z,98.43
2022-11-22T06:28:54.186Z,98.62
2022-11-22T06:31:25.523Z,98.54
2022-11-22T06:33:54.519Z,97.75
2022-11-22T06:36:27.341Z,97.23
2022-11-22T06:38:53.835Z,97.18
2022-11-22T06:41:33.900Z,96.68
2022-11-22T06:44:07.858Z,96.86
2022-11-22T06:46:37.548Z,96.68
2022-11-22T06:49:11.202Z,97.07
2022-11-22T06:51:40.008Z,96.29
2022-11-22T06:54:11.352Z,96.37
2022-11-22T06:56:41.587Z,96.60
2022-11-22T06:59:11.445Z,96.31
2022-11-22T07:01:38.764Z,95.90
2022-11-22T07:04:06.252Z,96.00
2022-11-22T07:06:35.834Z,96.31
2022-11-22T07:09:07.509Z,95.78
2022-11-22T07:11:35.105Z,95.51
2022-11-22T07:14:10.787Z,95.74
2022-11-22T07:16:38.898Z,95.49
2022-11-22T07:19:08.027Z,95.53
2022-11-22T07:21:36.635Z,95.43
2022-11-22T07:24:04.632Z,95.09
2022-11-22T07:26:31.239Z,95.04
2022-11-22T07:28:57.779Z,95.13
2022-11-22T07:31:24.556Z,94.98
2022-11-22T07:33:51.128Z,94.78
2022-11-22T07:36:20.622Z,95.00
2022-11-22T07:38:48.582Z,94.80
2022-11-22T07:41:16.552Z,95.00
2022-11-22T07:43:43.601Z,94.93
2022-11-22T07:46:24.828Z,94.51
2022-11-22T07:48:53.931Z,94.71
2022-11-22T07:51:25.214Z,94.39
2022-11-22T07:53:51.888Z,94.47
2022-11-22T07:56:18.459Z,93.98
2022-11-22T07:58:45.065Z,94.42
2022-11-22T08:01:18.678Z,94.04
2022-11-22T08:03:45.802Z,93.71
2022-11-22T08:06:13.816Z,93.83
2022-11-22T08:11:39.228Z,93.76
2022-11-22T08:14:05.788Z,93.58
2022-11-22T08:16:32.331Z,93.60
2022-11-22T08:19:03.719Z,93.45
2022-11-22T08:21:30.438Z,93.21
2022-11-22T08:24:00.188Z,93.65
2022-11-22T08:26:27.347Z,93.62
2022-11-22T08:28:56.420Z,93.68
2022-11-22T08:31:22.927Z,93.49
2022-11-22T08:33:53.287Z,92.99
2022-11-22T08:36:24.685Z,92.48
2022-11-22T08:38:51.199Z,93.02
2022-11-22T08:41:17.758Z,92.61
2022-11-22T08:43:44.708Z,92.36
2022-11-22T08:46:11.760Z,92.19
2022-11-22T08:48:40.872Z,92.23
2022-11-22T08:51:09.559Z,91.96
2022-11-22T08:53:41.707Z,92.13
2022-11-22T08:56:12.945Z,92.23
2022-11-22T08:58:40.170Z,91.37
2022-11-22T09:01:13.747Z,91.06
2022-11-22T09:03:41.662Z,90.46
2022-11-22T09:09:22.161Z,90.20
2022-11-22T09:11:44.585Z,89.93
2022-11-22T09:14:11.156Z,89.91
2022-11-22T09:16:37.713Z,89.99
2022-11-22T09:19:04.268Z,90.15
2022-11-22T09:21:30.836Z,90.26
2022-11-22T09:23:59.628Z,90.54
2022-11-22T09:26:26.307Z,90.31
2022-11-22T09:28:56.663Z,90.23
2022-11-22T09:31:26.498Z,90.02
2022-11-22T09:33:53.112Z,90.03
2022-11-22T09:36:22.332Z,90.09
2022-11-22T09:38:49.262Z,89.92
2022-11-22T09:41:15.731Z,90.23
2022-11-22T09:44:00.745Z,89.89
2022-11-22T09:46:42.367Z,90.13
2022-11-22T09:49:29.685Z,90.05
2022-11-22T09:52:02.231Z,89.82
2022-11-22T09:54:37.994Z,88.89
2022-11-22T09:57:09.069Z,89.27
2022-11-22T09:59:41.613Z,89.36
2022-11-22T10:02:18.992Z,89.12
2022-11-22T10:04:56.056Z,89.54
2022-11-22T10:07:35.432Z,89.17
2022-11-22T10:10:14.672Z,89.22
2022-11-22T10:12:52.894Z,89.24
2022-11-22T10:15:44.370Z,89.25
2022-11-22T10:18:26.316Z,89.14
2022-11-22T10:20:53.386Z,88.92
2022-11-22T10:23:25.945Z,88.08
2022-11-22T10:26:07.596Z,88.11
2022-11-22T10:29:14.125Z,88.13
2022-11-22T10:31:50.152Z,88.24
2022-11-22T10:34:30.672Z,88.25
2022-11-22T10:37:05.345Z,88.02
2022-11-22T10:39:48.597Z,87.99
2022-11-22T10:42:33.911Z,88.00
2022-11-22T10:45:06.388Z,88.10
2022-11-22T10:48:02.996Z,87.84
2022-11-22T10:50:49.917Z,87.97
2022-11-22T10:53:28.453Z,87.62
2022-11-22T10:56:23.140Z,87.80
2022-11-22T10:59:08.435Z,87.28
2022-11-22T11:01:59.597Z,87.28
2022-11-22T11:04:35.453Z,86.15
2022-11-22T11:07:12.076Z,86.04
2022-11-22T11:10:10.331Z,86.07
2022-11-22T11:12:46.987Z,85.90
2022-11-22T11:15:24.766Z,85.80
2022-11-22T11:18:00.666Z,85.63
2022-11-22T11:20:38.757Z,85.90
2022-11-22T11:23:20.712Z,86.15
2022-11-22T11:25:48.877Z,86.00
2022-11-22T11:28:23.739Z,86.25
2022-11-22T11:31:09.744Z,85.79
2022-11-22T11:33:39.111Z,86.14
2022-11-22T11:36:24.618Z,85.98
2022-11-22T11:38:55.662Z,86.70
2022-11-22T11:41:26.044Z,86.28
2022-11-22T11:44:01.463Z,86.29
2022-11-22T11:46:30.321Z,86.38
2022-11-22T11:49:18.838Z,86.51
2022-11-22T11:51:47.384Z,86.30
2022-11-22T11:54:22.766Z,86.34
2022-11-22T11:56:58.053Z,86.33
2022-11-22T11:59:39.312Z,86.54
2022-11-22T12:02:21.198Z,86.21
2022-11-22T12:04:50.723Z,86.41
2022-11-22T12:07:24.433Z,86.08
2022-11-22T12:09:56.328Z,86.75
2022-11-22T12:12:51.124Z,86.44
2022-11-22T12:15:53.514Z,86.42
2022-11-22T12:18:36.450Z,86.68
2022-11-22T12:21:25.057Z,86.64
2022-11-22T12:27:05.644Z,86.19
2022-11-22T12:29:49.467Z,86.48
2022-11-22T12:32:23.990Z,86.32
2022-11-22T12:34:53.960Z,86.47
2022-11-22T12:37:34.150Z,85.80
2022-11-22T12:40:05.638Z,85.93
2022-11-22T12:42:39.589Z,85.69
2022-11-22T12:45:13.549Z,85.76
2022-11-22T12:47:44.697Z,85.42
2022-11-22T12:48:23.891Z,86.42
2022-11-22T12:50:14.165Z,85.39
2022-11-22T12:52:59.185Z,85.64
2022-11-22T12:55:30.532Z,85.38
2022-11-22T12:58:10.916Z,85.39
2022-11-22T13:00:48.044Z,85.56
2022-11-22T13:03:30.325Z,85.57
2022-11-22T13:05:59.344Z,85.52
2022-11-22T13:08:38.487Z,85.28
2022-11-22T13:11:09.363Z,84.92
2022-11-22T13:14:02.709Z,85.47
2022-11-22T13:16:29.542Z,84.97
2022-11-22T13:19:00.636Z,84.91
2022-11-22T13:21:49.995Z,85.09
2022-11-22T13:24:54.753Z,85.17
2022-11-22T13:27:44.416Z,84.93
2022-11-22T13:30:22.101Z,84.67
2022-11-22T13:32:57.987Z,84.94
2022-11-22T13:35:33.985Z,84.88
2022-11-22T13:38:04.434Z,84.73
2022-11-22T13:40:35.171Z,85.10
2022-11-22T13:43:21.212Z,84.88
2022-11-22T13:45:51.579Z,85.24
2022-11-22T13:48:40.038Z,84.76
2022-11-22T13:51:09.560Z,84.44
2022-11-22T13:53:44.045Z,84.52
2022-11-22T13:56:16.566Z,84.74
2022-11-22T13:58:50.776Z,84.47
2022-11-22T14:01:36.040Z,84.58
2022-11-22T14:04:19.697Z,84.35
2022-11-22T14:06:56.853Z,84.56
2022-11-22T14:09:56.586Z,84.37
2022-11-22T14:12:37.632Z,84.48
2022-11-22T14:15:19.519Z,84.85
2022-11-22T14:18:13.026Z,84.81
2022-11-22T14:21:02.489Z,85.16
2022-11-22T14:23:47.308Z,85.12
2022-11-22T14:26:21.670Z,85.28
2022-11-22T14:28:57.982Z,85.28
2022-11-22T14:31:28.878Z,85.34
2022-11-22T14:34:14.328Z,86.02
2022-11-22T14:36:41.339Z,85.80
2022-11-22T14:39:53.360Z,85.91
2022-11-22T14:42:35.756Z,85.79
2022-11-22T14:45:11.382Z,86.42
2022-11-22T14:47:52.413Z,86.20
2022-11-22T14:50:24.682Z,86.32
2022-11-22T14:52:52.893Z,86.49
2022-11-22T14:55:30.893Z,86.39
2022-11-22T14:58:23.565Z,87.07
2022-11-22T15:01:14.929Z,87.00
2022-11-22T15:09:14.158Z,86.70
2022-11-22T15:09:23.879Z,86.94
2022-11-22T15:09:56.421Z,87.17
2022-11-22T15:12:58.359Z,87.14
2022-11-22T15:59:31.267Z,88.48
2022-11-22T16:02:01.696Z,88.48
2022-11-22T16:04:36.353Z,88.59
2022-11-22T16:07:06.798Z,88.60
2022-11-22T16:09:38.317Z,89.03
2022-11-22T16:12:25.349Z,88.47
2022-11-22T16:14:52.946Z,89.00
2022-11-22T16:17:25.308Z,89.56
2022-11-22T16:19:53.302Z,89.53
2022-11-22T16:22:31.091Z,89.56
2022-11-22T16:25:31.211Z,89.74
2022-11-22T16:27:58.005Z,89.32
2022-11-22T16:30:24.544Z,89.74
2022-11-22T16:32:53.843Z,89.50
2022-11-22T16:35:29.515Z,89.62
2022-11-22T16:37:56.511Z,89.89
2022-11-22T16:40:23.106Z,89.97
2022-11-22T16:42:49.694Z,89.98
2022-11-22T16:45:19.816Z,90.21
2022-11-22T16:47:54.612Z,89.83
2022-11-22T16:50:33.058Z,90.14
2022-11-22T16:53:02.978Z,89.97
2022-11-22T16:55:29.650Z,90.28
2022-11-22T16:57:56.482Z,90.48
2022-11-22T17:01:15.873Z,90.49
2022-11-22T17:03:44.353Z,90.52
2022-11-22T17:06:21.004Z,90.50
2022-11-22T17:08:49.728Z,90.32
2022-11-22T17:11:19.508Z,90.62
2022-11-22T17:13:46.400Z,90.77
2022-11-22T17:16:17.740Z,90.92
2022-11-22T17:18:45.869Z,90.89
2022-11-22T17:21:29.394Z,91.20
2022-11-22T17:24:12.182Z,91.27
2022-11-22T17:26:38.736Z,91.19
2022-11-22T17:29:06.617Z,91.23
2022-11-22T17:31:35.790Z,91.05
2022-11-22T17:34:02.359Z,91.28
2022-11-22T17:36:31.622Z,90.86
2022-11-22T17:39:00.286Z,90.89
2022-11-22T17:41:27.649Z,91.11
2022-11-22T17:43:56.619Z,90.72
2022-11-22T17:46:23.519Z,91.22
2022-11-22T17:48:51.670Z,90.91
2022-11-22T17:51:18.275Z,91.11
2022-11-22T17:53:44.916Z,90.97
2022-11-22T17:56:11.829Z,90.79
2022-11-22T17:58:41.055Z,90.92
2022-11-22T18:01:08.888Z,91.18
2022-11-22T18:03:38.562Z,91.35
2022-11-22T18:06:05.709Z,91.22
2022-11-22T18:08:32.790Z,91.08
2022-11-22T18:11:01.279Z,91.31
2022-11-22T18:13:31.276Z,91.56
2022-11-22T18:16:03.154Z,91.58
2022-11-22T18:21:21.239Z,91.03
2022-11-22T18:23:48.044Z,91.60
2022-11-22T18:29:38.585Z,91.41
2022-11-22T18:31:52.231Z,90.92
2022-11-22T18:34:20.360Z,91.35
2022-11-22T18:36:55.461Z,91.06
2022-11-22T18:39:26.858Z,91.08
2022-11-22T18:41:55.642Z,91.56
2022-11-22T18:44:22.171Z,91.41
2022-11-22T18:46:50.873Z,91.21
2022-11-22T18:49:17.455Z,91.70
2022-11-22T18:51:44.170Z,91.25
2022-11-22T18:54:10.780Z,91.49
2022-11-22T18:56:40.659Z,91.43
2022-11-22T18:59:10.511Z,91.78
2022-11-22T19:01:37.365Z,91.45
2022-11-22T19:04:09.288Z,92.06
2022-11-22T19:06:38.355Z,91.60
2022-11-22T19:09:04.948Z,91.84
2022-11-22T19:11:34.375Z,92.11
2022-11-22T19:14:01.710Z,92.25
2022-11-22T19:16:30.249Z,92.00
2022-11-22T19:18:58.482Z,92.42
2022-11-22T19:21:26.974Z,91.86
2022-11-22T19:23:54.153Z,91.98
2022-11-22T19:26:23.239Z,92.41
2022-11-22T19:28:55.928Z,92.62
2022-11-22T19:31:27.690Z,92.59
2022-11-22T19:33:58.244Z,92.81
2022-11-22T19:36:32.771Z,92.75
2022-11-22T19:39:00.632Z,92.52
2022-11-22T19:41:27.337Z,92.25
2022-11-22T19:43:56.278Z,92.43
2022-11-22T19:46:23.410Z,92.40
2022-11-22T19:48:53.872Z,92.59
2022-11-22T19:51:22.237Z,92.38
2022-11-22T19:53:53.386Z,92.49
2022-11-22T19:56:21.120Z,92.97
2022-11-22T19:58:53.615Z,92.46
2022-11-22T20:01:21.880Z,92.61
2022-11-22T20:03:53.501Z,92.88
2022-11-22T20:06:20.935Z,93.04
2022-11-22T20:08:47.616Z,92.97
2022-11-22T20:11:16.741Z,93.06
2022-11-22T20:13:46.457Z,93.14
2022-11-22T20:16:26.899Z,93.44
2022-11-22T20:19:09.602Z,93.44
2022-11-22T20:21:37.522Z,93.00
2022-11-22T20:24:05.503Z,93.17
2022-11-22T20:26:33.059Z,93.01
2022-11-22T20:29:04.960Z,93.44
2022-11-22T20:31:32.867Z,93.25
2022-11-22T20:34:00.498Z,93.43
2022-11-22T20:36:31.183Z,93.33
2022-11-22T20:39:09.852Z,93.64
2022-11-22T20:41:38.560Z,93.56
2022-11-22T20:44:05.724Z,93.18
2022-11-22T20:46:36.775Z,93.23
2022-11-22T20:49:03.391Z,93.66
2022-11-22T20:51:32.258Z,93.84
2022-11-22T20:54:01.088Z,93.64
2022-11-22T20:56:27.694Z,93.78
2022-11-22T20:58:54.467Z,94.03
2022-11-22T21:01:26.635Z,93.96
2022-11-22T21:03:57.061Z,93.73
2022-11-22T21:06:26.785Z,94.01
2022-11-22T21:08:54.289Z,93.77
2022-11-22T21:11:27.725Z,93.82
2022-11-22T21:13:55.689Z,93.85
2022-11-22T21:16:24.998Z,94.09
2022-11-22T21:18:53.995Z,93.76
2022-11-22T21:21:24.922Z,94.02
2022-11-22T21:23:56.344Z,94.34
2022-11-22T21:26:24.293Z,94.23
2022-11-22T21:28:52.306Z,93.70
2022-11-22T21:31:20.243Z,94.28
2022-11-22T21:33:47.884Z,94.21
2022-11-22T21:36:14.873Z,94.36
2022-11-22T21:38:43.807Z,94.51
2022-11-22T21:44:09.284Z,94.39
2022-11-22T21:46:35.953Z,94.51
2022-11-22T21:49:02.523Z,94.44
2022-11-22T21:51:32.243Z,94.70
2022-11-22T21:53:59.891Z,94.60
2022-11-22T21:56:27.208Z,94.92
2022-11-22T21:58:54.379Z,94.26
2022-11-22T22:01:21.204Z,94.64
2022-11-22T22:03:47.747Z,94.54
2022-11-22T22:06:14.419Z,94.51
2022-11-22T22:08:41.255Z,94.85
2022-11-22T22:11:08.374Z,94.78
2022-11-22T22:13:35.150Z,94.64
2022-11-22T22:16:04.185Z,94.78
2022-11-22T22:18:38.080Z,94.87
2022-11-22T22:21:07.263Z,94.71
2022-11-22T22:23:35.459Z,94.87
2022-11-22T22:26:03.926Z,95.02
2022-11-22T22:28:33.157Z,94.92
2022-11-22T22:31:10.249Z,94.90
2022-11-22T22:33:38.623Z,94.88
2022-11-22T22:36:06.658Z,95.19
2022-11-22T22:38:34.387Z,95.22
2022-11-22T22:41:03.692Z,95.08
2022-11-22T22:43:35.420Z,95.21
2022-11-22T22:46:24.771Z,95.13
2022-11-22T22:48:52.195Z,95.07
2022-11-22T22:51:26.246Z,95.40
2022-11-22T22:53:57.956Z,95.52
2022-11-22T22:56:28.195Z,95.22
2022-11-22T22:58:55.818Z,95.18
2022-11-22T23:01:26.860Z,95.50
2022-11-22T23:03:58.804Z,95.60
2022-11-22T23:06:27.559Z,95.63
2022-11-22T23:08:57.250Z,95.51
2022-11-22T23:11:45.640Z,95.37
2022-11-22T23:14:14.623Z,95.49
2022-11-22T23:16:41.213Z,95.47
2022-11-22T23:19:08.078Z,95.73
2022-11-22T23:21:35.295Z,95.66
2022-11-22T23:24:02.750Z,95.23
2022-11-22T23:26:29.432Z,95.05
2022-11-22T23:28:56.037Z,95.75
2022-11-22T23:31:22.632Z,95.35
2022-11-22T23:33:49.207Z,95.61
2022-11-22T23:36:18.208Z,95.67
2022-11-22T23:38:45.411Z,95.70
2022-11-22T23:41:13.999Z,95.63
2022-11-22T23:43:41.645Z,95.98
2022-11-22T23:46:16.769Z,95.64
2022-11-22T23:48:55.714Z,95.71
2022-11-22T23:51:23.566Z,95.59
2022-11-22T23:53:55.053Z,96.05
2022-11-22T23:56:22.236Z,95.86
2022-11-22T23:58:49.385Z,95.83
